UGD321 HUEN-HTDA
Flight info
| Callsign | UGD321 |
|---|---|
| Flight time | 1h 22m |
| Altitude | 35000 |
| Route | BETAF1B BETAF DCT TEBLU DCT OKSOT DCT OKSIS DCT IMGEX DCT NIBOT DCT AVATU DCT ITMEN DCT AVETA DCT UVBOX DCT IMKIX DCT LUGAP DCT ITGOP ITGOP1B |
| Aircraft | A321/M-SDE3FGHIRWY/LB1 |
Departure
| Time | 2026-05-09 16:47 |
|---|---|
| Airport | Entebbe International Airport (HUEN) |
Arrival
| Time | 2026-05-09 18:10 |
|---|---|
| Airport | Julius Nyerere International Airport (HTDA) |
| Time | Latitude | Longitude | Altitude | Speed | Heading |
|---|---|---|---|---|---|
| 2026-05-09 16:27 | 0.04473 | 32.44179 | 3800 ft | 0 kts | 82° |
| 2026-05-09 16:36 | 0.04473 | 32.44178 | 3800 ft | 0 kts | 82° |
| 2026-05-09 16:36 | 0.04468 | 32.44137 | 3799 ft | 2 kts | 82° |
| 2026-05-09 16:37 | 0.04466 | 32.44122 | 3798 ft | 2 kts | 81° |
| 2026-05-09 16:37 | 0.04464 | 32.44107 | 3798 ft | 2 kts | 83° |
| 2026-05-09 16:37 | 0.04463 | 32.44104 | 3798 ft | 0 kts | 83° |
| 2026-05-09 16:38 | 0.04463 | 32.44105 | 3797 ft | 0 kts | 83° |
| 2026-05-09 16:42 | 0.04491 | 32.44125 | 3797 ft | 7 kts | 352° |
| 2026-05-09 16:42 | 0.04553 | 32.44105 | 3795 ft | 11 kts | 344° |
| 2026-05-09 16:42 | 0.04645 | 32.44086 | 3791 ft | 16 kts | 352° |
| 2026-05-09 16:42 | 0.04765 | 32.44069 | 3786 ft | 19 kts | 350° |
| 2026-05-09 16:43 | 0.04903 | 32.44020 | 3779 ft | 22 kts | 338° |
| 2026-05-09 16:43 | 0.05064 | 32.43992 | 3774 ft | 24 kts | 352° |
| 2026-05-09 16:43 | 0.05232 | 32.43966 | 3770 ft | 25 kts | 349° |
| 2026-05-09 16:43 | 0.05360 | 32.43855 | 3767 ft | 20 kts | 303° |
| 2026-05-09 16:44 | 0.05397 | 32.43799 | 3769 ft | 0 kts | 303° |
| 2026-05-09 16:45 | 0.05403 | 32.43789 | 3769 ft | 5 kts | 301° |
| 2026-05-09 16:45 | 0.05429 | 32.43746 | 3771 ft | 9 kts | 301° |
| 2026-05-09 16:45 | 0.05484 | 32.43707 | 3771 ft | 13 kts | 345° |
| 2026-05-09 16:46 | 0.05556 | 32.43658 | 3770 ft | 11 kts | 278° |
| 2026-05-09 16:46 | 0.05529 | 32.43627 | 3772 ft | 7 kts | 171° |
| 2026-05-09 16:46 | 0.05523 | 32.43628 | 3772 ft | 1 kts | 171° |
| 2026-05-09 16:46 | 0.05362 | 32.43652 | 3775 ft | 60 kts | 173° |
| 2026-05-09 16:47 | 0.04703 | 32.43742 | 3781 ft | 127 kts | 172° |
| 2026-05-09 16:47 | 0.03652 | 32.43888 | 3799 ft | 176 kts | 172° |
| 2026-05-09 16:47 | 0.02375 | 32.44074 | 4132 ft | 191 kts | 173° |
| 2026-05-09 16:47 | 0.01054 | 32.44247 | 4710 ft | 196 kts | 173° |
| 2026-05-09 16:48 | -0.00264 | 32.44411 | 5335 ft | 201 kts | 173° |
| 2026-05-09 16:48 | -0.01663 | 32.44599 | 6001 ft | 205 kts | 171° |
| 2026-05-09 16:48 | -0.03072 | 32.44800 | 6638 ft | 206 kts | 171° |
| 2026-05-09 16:48 | -0.04501 | 32.45012 | 7083 ft | 213 kts | 170° |
| 2026-05-09 16:49 | -0.05999 | 32.45227 | 7464 ft | 226 kts | 171° |
| 2026-05-09 16:49 | -0.07608 | 32.45446 | 7775 ft | 243 kts | 171° |
| 2026-05-09 16:49 | -0.09329 | 32.45676 | 8110 ft | 259 kts | 171° |
| 2026-05-09 16:50 | -0.12854 | 32.46874 | 9152 ft | 273 kts | 146° |
| 2026-05-09 16:50 | -0.14483 | 32.47934 | 9541 ft | 287 kts | 144° |
| 2026-05-09 16:50 | -0.16153 | 32.49052 | 10099 ft | 293 kts | 144° |
| 2026-05-09 16:50 | -0.17841 | 32.50175 | 10844 ft | 293 kts | 144° |
| 2026-05-09 16:51 | -0.19523 | 32.51290 | 11560 ft | 293 kts | 145° |
| 2026-05-09 16:51 | -0.21210 | 32.52405 | 12228 ft | 293 kts | 146° |
| 2026-05-09 16:51 | -0.22905 | 32.53519 | 12842 ft | 295 kts | 145° |
| 2026-05-09 16:51 | -0.24635 | 32.54655 | 13417 ft | 298 kts | 145° |
| 2026-05-09 16:52 | -0.26390 | 32.55808 | 13764 ft | 309 kts | 145° |
| 2026-05-09 16:52 | -0.28218 | 32.57012 | 14017 ft | 323 kts | 145° |
| 2026-05-09 16:52 | -0.30131 | 32.58270 | 14276 ft | 336 kts | 145° |
| 2026-05-09 16:52 | -0.32099 | 32.59564 | 14705 ft | 343 kts | 145° |
| 2026-05-09 16:53 | -0.34094 | 32.60875 | 15281 ft | 346 kts | 145° |
| 2026-05-09 16:53 | -0.36101 | 32.62192 | 15827 ft | 349 kts | 145° |
| 2026-05-09 16:53 | -0.38143 | 32.63532 | 16346 ft | 352 kts | 144° |
| 2026-05-09 16:53 | -0.40196 | 32.64878 | 16853 ft | 356 kts | 144° |
| 2026-05-09 16:54 | -0.42178 | 32.66354 | 17328 ft | 357 kts | 133° |
| 2026-05-09 16:54 | -0.43655 | 32.68331 | 17795 ft | 357 kts | 115° |
| 2026-05-09 16:54 | -0.44504 | 32.70664 | 18291 ft | 358 kts | 103° |
| 2026-05-09 16:54 | -0.45110 | 32.73073 | 18767 ft | 361 kts | 102° |
| 2026-05-09 16:55 | -0.45707 | 32.75526 | 18974 ft | 371 kts | 102° |
| 2026-05-09 16:55 | -0.46335 | 32.78081 | 19178 ft | 382 kts | 102° |
| 2026-05-09 16:55 | -0.46984 | 32.80689 | 19420 ft | 391 kts | 103° |
| 2026-05-09 16:55 | -0.47646 | 32.83326 | 19846 ft | 394 kts | 103° |
| 2026-05-09 16:56 | -0.48317 | 32.85985 | 20310 ft | 397 kts | 102° |
| 2026-05-09 16:56 | -0.48993 | 32.88663 | 20739 ft | 400 kts | 102° |
| 2026-05-09 16:56 | -0.49675 | 32.91360 | 21148 ft | 403 kts | 102° |
| 2026-05-09 16:56 | -0.50364 | 32.94083 | 21544 ft | 406 kts | 102° |
| 2026-05-09 16:57 | -0.51192 | 32.96817 | 21916 ft | 412 kts | 110° |
| 2026-05-09 16:57 | -0.52530 | 32.99363 | 22282 ft | 418 kts | 122° |
| 2026-05-09 16:57 | -0.54370 | 33.01631 | 22647 ft | 424 kts | 132° |
| 2026-05-09 16:57 | -0.56473 | 33.03706 | 23023 ft | 427 kts | 134° |
| 2026-05-09 16:58 | -0.58633 | 33.05759 | 23366 ft | 431 kts | 134° |
| 2026-05-09 16:58 | -0.60808 | 33.07827 | 23704 ft | 434 kts | 134° |
| 2026-05-09 16:58 | -0.62986 | 33.09917 | 24042 ft | 437 kts | 134° |
| 2026-05-09 16:58 | -0.65195 | 33.12050 | 24378 ft | 440 kts | 134° |
| 2026-05-09 16:59 | -0.67402 | 33.14187 | 24705 ft | 443 kts | 134° |
| 2026-05-09 16:59 | -0.69623 | 33.16338 | 25028 ft | 446 kts | 134° |
| 2026-05-09 16:59 | -0.71852 | 33.18500 | 25346 ft | 449 kts | 134° |
| 2026-05-09 16:59 | -0.74093 | 33.20669 | 25662 ft | 452 kts | 134° |
| 2026-05-09 17:00 | -0.76357 | 33.22856 | 25973 ft | 454 kts | 134° |
| 2026-05-09 17:00 | -0.78631 | 33.25053 | 26271 ft | 457 kts | 134° |
| 2026-05-09 17:00 | -0.80940 | 33.27283 | 26570 ft | 460 kts | 134° |
| 2026-05-09 17:00 | -0.83241 | 33.29505 | 26867 ft | 462 kts | 134° |
| 2026-05-09 17:01 | -0.85550 | 33.31735 | 27148 ft | 465 kts | 134° |
| 2026-05-09 17:01 | -0.87885 | 33.33990 | 27427 ft | 467 kts | 134° |
| 2026-05-09 17:01 | -0.90227 | 33.36251 | 27699 ft | 470 kts | 135° |
| 2026-05-09 17:01 | -0.92576 | 33.38520 | 27971 ft | 472 kts | 135° |
| 2026-05-09 17:02 | -0.94936 | 33.40798 | 28238 ft | 474 kts | 135° |
| 2026-05-09 17:02 | -0.97326 | 33.43107 | 28497 ft | 477 kts | 135° |
| 2026-05-09 17:02 | -0.99715 | 33.45417 | 28736 ft | 479 kts | 135° |
| 2026-05-09 17:02 | -1.02112 | 33.47734 | 28965 ft | 482 kts | 135° |
| 2026-05-09 17:03 | -1.04525 | 33.50065 | 29192 ft | 485 kts | 136° |
| 2026-05-09 17:04 | -1.21308 | 33.66228 | 31198 ft | 485 kts | 137° |
| 2026-05-09 17:05 | -1.23585 | 33.68442 | 31483 ft | 485 kts | 137° |
| 2026-05-09 17:05 | -1.26016 | 33.70804 | 31687 ft | 486 kts | 137° |
| 2026-05-09 17:05 | -1.28435 | 33.73148 | 31879 ft | 487 kts | 137° |
| 2026-05-09 17:05 | -1.30887 | 33.75518 | 32078 ft | 488 kts | 138° |
| 2026-05-09 17:06 | -1.33321 | 33.77870 | 32273 ft | 489 kts | 138° |
| 2026-05-09 17:06 | -1.35765 | 33.80232 | 32465 ft | 490 kts | 138° |
| 2026-05-09 17:06 | -1.38213 | 33.82600 | 32654 ft | 491 kts | 138° |
| 2026-05-09 17:06 | -1.40660 | 33.84968 | 32838 ft | 492 kts | 138° |
| 2026-05-09 17:07 | -1.43129 | 33.87356 | 33022 ft | 493 kts | 138° |
| 2026-05-09 17:07 | -1.44779 | 33.88953 | 33143 ft | 493 kts | 138° |
| 2026-05-09 17:07 | -1.48070 | 33.92137 | 33383 ft | 494 kts | 138° |
| 2026-05-09 17:07 | -1.50524 | 33.94511 | 33660 ft | 492 kts | 138° |
| 2026-05-09 17:08 | -1.52979 | 33.96889 | 33973 ft | 490 kts | 139° |
| 2026-05-09 17:08 | -1.57868 | 34.01618 | 34350 ft | 491 kts | 139° |
| 2026-05-09 17:08 | -1.60322 | 34.03991 | 34507 ft | 492 kts | 139° |
| 2026-05-09 17:09 | -1.62761 | 34.06350 | 34690 ft | 492 kts | 139° |
| 2026-05-09 17:09 | -1.65237 | 34.08746 | 34899 ft | 491 kts | 139° |
| 2026-05-09 17:09 | -1.67693 | 34.11123 | 35111 ft | 490 kts | 139° |
| 2026-05-09 17:09 | -1.70143 | 34.13495 | 35175 ft | 489 kts | 139° |
| 2026-05-09 17:10 | -1.75035 | 34.18229 | 35171 ft | 488 kts | 139° |
| 2026-05-09 17:10 | -1.79921 | 34.22958 | 35163 ft | 488 kts | 139° |
| 2026-05-09 17:11 | -1.84808 | 34.27687 | 35180 ft | 489 kts | 139° |
| 2026-05-09 17:11 | -1.89670 | 34.32394 | 35191 ft | 488 kts | 139° |
| 2026-05-09 17:12 | -1.94539 | 34.37109 | 35125 ft | 488 kts | 139° |
| 2026-05-09 17:12 | -1.99426 | 34.41841 | 35092 ft | 489 kts | 139° |
| 2026-05-09 17:13 | -2.04295 | 34.46557 | 35081 ft | 489 kts | 139° |
| 2026-05-09 17:13 | -2.09179 | 34.51287 | 35077 ft | 489 kts | 139° |
| 2026-05-09 17:14 | -2.14073 | 34.56006 | 35076 ft | 489 kts | 139° |
| 2026-05-09 17:14 | -2.18986 | 34.60739 | 35076 ft | 489 kts | 139° |
| 2026-05-09 17:15 | -2.23850 | 34.65440 | 35075 ft | 489 kts | 138° |
| 2026-05-09 17:15 | -2.28683 | 34.70149 | 35075 ft | 489 kts | 138° |
| 2026-05-09 17:17 | -2.48204 | 34.89099 | 35075 ft | 491 kts | 139° |
| 2026-05-09 17:18 | -2.53119 | 34.93864 | 35075 ft | 492 kts | 139° |
| 2026-05-09 17:18 | -2.58022 | 34.98616 | 35075 ft | 493 kts | 139° |
| 2026-05-09 17:19 | -2.62939 | 35.03383 | 35075 ft | 494 kts | 139° |
| 2026-05-09 17:19 | -2.67878 | 35.08172 | 35075 ft | 494 kts | 139° |
| 2026-05-09 17:20 | -2.72809 | 35.12954 | 35075 ft | 494 kts | 139° |
| 2026-05-09 17:20 | -2.77739 | 35.17735 | 35075 ft | 494 kts | 139° |
| 2026-05-09 17:21 | -2.82677 | 35.22524 | 35075 ft | 494 kts | 139° |
| 2026-05-09 17:21 | -2.87622 | 35.27321 | 35075 ft | 494 kts | 139° |
| 2026-05-09 17:22 | -2.92545 | 35.32098 | 35076 ft | 493 kts | 139° |
| 2026-05-09 17:22 | -2.97458 | 35.36867 | 35076 ft | 492 kts | 139° |
| 2026-05-09 17:23 | -3.02389 | 35.41652 | 35076 ft | 491 kts | 139° |
| 2026-05-09 17:23 | -3.07278 | 35.46397 | 35075 ft | 491 kts | 139° |
| 2026-05-09 17:25 | -3.21922 | 35.60559 | 35076 ft | 491 kts | 139° |
| 2026-05-09 17:25 | -3.26817 | 35.65308 | 35075 ft | 491 kts | 139° |
| 2026-05-09 17:26 | -3.31609 | 35.69990 | 35075 ft | 491 kts | 139° |
| 2026-05-09 17:26 | -3.36517 | 35.74782 | 35075 ft | 491 kts | 139° |
| 2026-05-09 17:27 | -3.41406 | 35.79539 | 35075 ft | 491 kts | 139° |
| 2026-05-09 17:27 | -3.46292 | 35.84290 | 35075 ft | 491 kts | 139° |
| 2026-05-09 17:28 | -3.51182 | 35.89043 | 35075 ft | 491 kts | 139° |
| 2026-05-09 17:28 | -3.56093 | 35.93817 | 35075 ft | 491 kts | 139° |
| 2026-05-09 17:29 | -3.60986 | 35.98574 | 35075 ft | 491 kts | 139° |
| 2026-05-09 17:29 | -3.65865 | 36.03318 | 35075 ft | 491 kts | 139° |
| 2026-05-09 17:30 | -3.70770 | 36.08087 | 35075 ft | 491 kts | 139° |
| 2026-05-09 17:30 | -3.75659 | 36.12842 | 35075 ft | 491 kts | 139° |
| 2026-05-09 17:31 | -3.80543 | 36.17593 | 35075 ft | 491 kts | 139° |
| 2026-05-09 17:32 | -3.92771 | 36.29491 | 35075 ft | 491 kts | 139° |
| 2026-05-09 17:33 | -3.97661 | 36.34251 | 35075 ft | 491 kts | 139° |
| 2026-05-09 17:33 | -4.02541 | 36.39002 | 35075 ft | 491 kts | 139° |
| 2026-05-09 17:34 | -4.07449 | 36.43781 | 35075 ft | 491 kts | 139° |
| 2026-05-09 17:35 | -4.24592 | 36.60424 | 35076 ft | 491 kts | 139° |
| 2026-05-09 17:36 | -4.29476 | 36.65181 | 35075 ft | 491 kts | 139° |
| 2026-05-09 17:36 | -4.34359 | 36.69969 | 35075 ft | 491 kts | 138° |
| 2026-05-09 17:37 | -4.39257 | 36.74767 | 35075 ft | 491 kts | 139° |
| 2026-05-09 17:37 | -4.44132 | 36.79529 | 35075 ft | 491 kts | 139° |
| 2026-05-09 17:38 | -4.49020 | 36.84299 | 35075 ft | 491 kts | 139° |
| 2026-05-09 17:39 | -4.56354 | 36.91453 | 35075 ft | 491 kts | 139° |
| 2026-05-09 17:39 | -4.61229 | 36.96209 | 35075 ft | 491 kts | 139° |
| 2026-05-09 17:40 | -4.66114 | 37.00977 | 35075 ft | 491 kts | 139° |
| 2026-05-09 17:40 | -4.70997 | 37.05743 | 35075 ft | 491 kts | 139° |
| 2026-05-09 17:41 | -4.75905 | 37.10534 | 35075 ft | 492 kts | 139° |
| 2026-05-09 17:41 | -4.80796 | 37.15311 | 35075 ft | 492 kts | 139° |
| 2026-05-09 17:42 | -4.85694 | 37.20095 | 35075 ft | 493 kts | 139° |
| 2026-05-09 17:42 | -4.90604 | 37.24890 | 35030 ft | 492 kts | 139° |
| 2026-05-09 17:43 | -4.95505 | 37.29680 | 34973 ft | 493 kts | 139° |
| 2026-05-09 17:43 | -5.00405 | 37.34471 | 34950 ft | 493 kts | 139° |
| 2026-05-09 17:44 | -5.05292 | 37.39250 | 34943 ft | 492 kts | 139° |
| 2026-05-09 17:44 | -5.10065 | 37.43918 | 34940 ft | 491 kts | 139° |
| 2026-05-09 17:45 | -5.15070 | 37.48787 | 34940 ft | 490 kts | 139° |
| 2026-05-09 17:45 | -5.19945 | 37.53532 | 34940 ft | 490 kts | 139° |
| 2026-05-09 17:46 | -5.24835 | 37.58310 | 34940 ft | 490 kts | 139° |
| 2026-05-09 17:46 | -5.29699 | 37.63069 | 34940 ft | 490 kts | 139° |
| 2026-05-09 17:47 | -5.34573 | 37.67855 | 34939 ft | 490 kts | 139° |
| 2026-05-09 17:47 | -5.39444 | 37.72655 | 34940 ft | 490 kts | 139° |
| 2026-05-09 17:48 | -5.44332 | 37.77453 | 34940 ft | 490 kts | 139° |
| 2026-05-09 17:48 | -5.49198 | 37.82223 | 34939 ft | 490 kts | 139° |
| 2026-05-09 17:49 | -5.54064 | 37.86990 | 34940 ft | 490 kts | 139° |
| 2026-05-09 17:49 | -5.58947 | 37.91777 | 34940 ft | 490 kts | 139° |
| 2026-05-09 17:50 | -5.63815 | 37.96550 | 34940 ft | 490 kts | 139° |
| 2026-05-09 17:50 | -5.71111 | 38.03704 | 34940 ft | 490 kts | 139° |
| 2026-05-09 17:51 | -5.76002 | 38.08495 | 34471 ft | 488 kts | 139° |
| 2026-05-09 17:51 | -5.78403 | 38.10849 | 33982 ft | 483 kts | 139° |
| 2026-05-09 17:51 | -5.80791 | 38.13190 | 33483 ft | 483 kts | 139° |
| 2026-05-09 17:52 | -5.83194 | 38.15543 | 32982 ft | 486 kts | 139° |
| 2026-05-09 17:52 | -5.85594 | 38.17895 | 32478 ft | 481 kts | 139° |
| 2026-05-09 17:52 | -5.87973 | 38.20229 | 31980 ft | 482 kts | 139° |
| 2026-05-09 17:52 | -5.90385 | 38.22591 | 31479 ft | 488 kts | 139° |
| 2026-05-09 17:53 | -5.92830 | 38.24988 | 30972 ft | 488 kts | 139° |
| 2026-05-09 17:53 | -5.95237 | 38.27350 | 30469 ft | 484 kts | 139° |
| 2026-05-09 17:53 | -5.97621 | 38.29691 | 29967 ft | 480 kts | 139° |
| 2026-05-09 17:53 | -5.99991 | 38.32018 | 29464 ft | 476 kts | 139° |
| 2026-05-09 17:54 | -6.02350 | 38.34335 | 28960 ft | 472 kts | 139° |
| 2026-05-09 17:54 | -6.04681 | 38.36623 | 28458 ft | 469 kts | 139° |
| 2026-05-09 17:54 | -6.06993 | 38.38893 | 27956 ft | 465 kts | 139° |
| 2026-05-09 17:54 | -6.09299 | 38.41157 | 27452 ft | 461 kts | 139° |
| 2026-05-09 17:55 | -6.11589 | 38.43401 | 26948 ft | 457 kts | 139° |
| 2026-05-09 17:55 | -6.13850 | 38.45608 | 26447 ft | 453 kts | 139° |
| 2026-05-09 17:55 | -6.16038 | 38.47870 | 25942 ft | 451 kts | 134° |
| 2026-05-09 17:55 | -6.18001 | 38.50300 | 25444 ft | 450 kts | 129° |
| 2026-05-09 17:56 | -6.19746 | 38.52890 | 24947 ft | 447 kts | 125° |
| 2026-05-09 17:56 | -6.21395 | 38.55516 | 24445 ft | 444 kts | 124° |
| 2026-05-09 17:56 | -6.23027 | 38.58152 | 23941 ft | 441 kts | 124° |
| 2026-05-09 17:57 | -6.26237 | 38.63335 | 22938 ft | 435 kts | 124° |
| 2026-05-09 17:57 | -6.27807 | 38.65863 | 22436 ft | 427 kts | 124° |
| 2026-05-09 17:57 | -6.29367 | 38.68384 | 21926 ft | 417 kts | 124° |
| 2026-05-09 17:57 | -6.30877 | 38.70823 | 21423 ft | 406 kts | 124° |
| 2026-05-09 17:58 | -6.32351 | 38.73200 | 20917 ft | 396 kts | 124° |
| 2026-05-09 17:58 | -6.33797 | 38.75527 | 20412 ft | 387 kts | 124° |
| 2026-05-09 17:58 | -6.35201 | 38.77781 | 19909 ft | 377 kts | 124° |
| 2026-05-09 17:58 | -6.36573 | 38.79983 | 19404 ft | 367 kts | 124° |
| 2026-05-09 17:59 | -6.37916 | 38.82138 | 18898 ft | 358 kts | 124° |
| 2026-05-09 17:59 | -6.39224 | 38.84236 | 18394 ft | 351 kts | 124° |
| 2026-05-09 17:59 | -6.40513 | 38.86303 | 17894 ft | 349 kts | 124° |
| 2026-05-09 17:59 | -6.41793 | 38.88355 | 17394 ft | 346 kts | 124° |
| 2026-05-09 18:00 | -6.43071 | 38.90404 | 16892 ft | 345 kts | 124° |
| 2026-05-09 18:00 | -6.44343 | 38.92444 | 16392 ft | 347 kts | 123° |
| 2026-05-09 18:00 | -6.45620 | 38.94491 | 15892 ft | 347 kts | 123° |
| 2026-05-09 18:00 | -6.46887 | 38.96525 | 15389 ft | 342 kts | 123° |
| 2026-05-09 18:01 | -6.48136 | 38.98531 | 14886 ft | 337 kts | 123° |
| 2026-05-09 18:01 | -6.49364 | 39.00503 | 14385 ft | 332 kts | 123° |
| 2026-05-09 18:01 | -6.50577 | 39.02450 | 13879 ft | 325 kts | 123° |
| 2026-05-09 18:01 | -6.51762 | 39.04353 | 13373 ft | 316 kts | 123° |
| 2026-05-09 18:02 | -6.52908 | 39.06194 | 12869 ft | 308 kts | 123° |
| 2026-05-09 18:02 | -6.54031 | 39.07999 | 12368 ft | 303 kts | 122° |
| 2026-05-09 18:02 | -6.55136 | 39.09773 | 11864 ft | 298 kts | 122° |
| 2026-05-09 18:02 | -6.56221 | 39.11517 | 11362 ft | 293 kts | 122° |
| 2026-05-09 18:03 | -6.57288 | 39.13235 | 10861 ft | 289 kts | 122° |
| 2026-05-09 18:03 | -6.58343 | 39.14933 | 10360 ft | 286 kts | 123° |
| 2026-05-09 18:03 | -6.59392 | 39.16620 | 9857 ft | 282 kts | 123° |
| 2026-05-09 18:03 | -6.60420 | 39.18274 | 9358 ft | 279 kts | 123° |
| 2026-05-09 18:04 | -6.61440 | 39.19913 | 8858 ft | 276 kts | 123° |
| 2026-05-09 18:04 | -6.62449 | 39.21535 | 8359 ft | 273 kts | 123° |
| 2026-05-09 18:04 | -6.63447 | 39.23139 | 7860 ft | 271 kts | 123° |
| 2026-05-09 18:04 | -6.64437 | 39.24729 | 7362 ft | 268 kts | 124° |
| 2026-05-09 18:05 | -6.65418 | 39.26305 | 6863 ft | 266 kts | 125° |
| 2026-05-09 18:05 | -6.66498 | 39.27804 | 6357 ft | 263 kts | 132° |
| 2026-05-09 18:05 | -6.67722 | 39.29135 | 5859 ft | 259 kts | 137° |
| 2026-05-09 18:05 | -6.68991 | 39.30397 | 5362 ft | 257 kts | 137° |
| 2026-05-09 18:06 | -6.70250 | 39.31645 | 4917 ft | 253 kts | 137° |
| 2026-05-09 18:06 | -6.71486 | 39.32865 | 4491 ft | 248 kts | 141° |
| 2026-05-09 18:06 | -6.72960 | 39.33647 | 4005 ft | 240 kts | 175° |
| 2026-05-09 18:06 | -6.74549 | 39.33394 | 3573 ft | 233 kts | 207° |
| 2026-05-09 18:07 | -6.75794 | 39.32388 | 3178 ft | 225 kts | 225° |
| 2026-05-09 18:07 | -6.76848 | 39.31276 | 2789 ft | 218 kts | 225° |
| 2026-05-09 18:07 | -6.77884 | 39.30202 | 2434 ft | 211 kts | 224° |
| 2026-05-09 18:07 | -6.78899 | 39.29171 | 2079 ft | 205 kts | 224° |
| 2026-05-09 18:08 | -6.79876 | 39.28185 | 1881 ft | 190 kts | 223° |
| 2026-05-09 18:08 | -6.80762 | 39.27294 | 1739 ft | 174 kts | 223° |
| 2026-05-09 18:08 | -6.81593 | 39.26462 | 1497 ft | 165 kts | 223° |
| 2026-05-09 18:08 | -6.82387 | 39.25668 | 1267 ft | 155 kts | 223° |
| 2026-05-09 18:09 | -6.83133 | 39.24923 | 1064 ft | 151 kts | 223° |
| 2026-05-09 18:09 | -6.83882 | 39.24176 | 866 ft | 152 kts | 223° |
| 2026-05-09 18:09 | -6.84631 | 39.23427 | 655 ft | 153 kts | 222° |
| 2026-05-09 18:09 | -6.85389 | 39.22675 | 467 ft | 153 kts | 221° |
| 2026-05-09 18:10 | -6.86151 | 39.21932 | 251 ft | 154 kts | 222° |
| 2026-05-09 18:10 | -6.86651 | 39.21426 | 181 ft | 147 kts | 223° |
| 2026-05-09 18:10 | -6.87286 | 39.20789 | 183 ft | 46 kts | 224° |
| 2026-05-09 18:10 | -6.87482 | 39.20591 | 182 ft | 39 kts | 224° |
| 2026-05-09 18:11 | -6.87571 | 39.20425 | 183 ft | 24 kts | 308° |
| 2026-05-09 18:11 | -6.87447 | 39.20391 | 185 ft | 21 kts | 36° |
| 2026-05-09 18:11 | -6.87344 | 39.20491 | 186 ft | 21 kts | 46° |
| 2026-05-09 18:11 | -6.87240 | 39.20599 | 185 ft | 22 kts | 45° |
| 2026-05-09 18:12 | -6.87126 | 39.20709 | 183 ft | 23 kts | 44° |
| 2026-05-09 18:12 | -6.87011 | 39.20827 | 183 ft | 23 kts | 46° |
| 2026-05-09 18:12 | -6.86893 | 39.20939 | 183 ft | 24 kts | 44° |
| 2026-05-09 18:12 | -6.86774 | 39.21053 | 182 ft | 24 kts | 29° |
| 2026-05-09 18:13 | -6.86619 | 39.21114 | 183 ft | 23 kts | 41° |
| 2026-05-09 18:13 | -6.86515 | 39.21196 | 183 ft | 10 kts | 348° |
| 2026-05-09 18:13 | -6.86480 | 39.21169 | 184 ft | 5 kts | 320° |
| 2026-05-09 18:13 | -6.86469 | 39.21159 | 184 ft | 0 kts | 318° |